createdAt,value
2018-05-26T00:03:33.860Z,2.80
2018-05-26T00:08:37.362Z,2.50
2018-05-26T00:13:40.236Z,2.83
2018-05-26T00:18:43.307Z,3.63
2018-05-26T00:23:46.316Z,4.20
2018-05-26T00:28:49.702Z,2.87
2018-05-26T00:35:12.025Z,2.77
2018-05-26T00:40:14.909Z,3.80
2018-05-26T00:45:17.771Z,3.73
2018-05-26T00:50:20.751Z,3.90
2018-05-26T00:55:23.593Z,3.90
2018-05-26T01:00:26.466Z,3.20
2018-05-26T01:05:30.098Z,3.50
2018-05-26T01:10:34.161Z,3.13
2018-05-26T01:15:37.567Z,2.47
2018-05-26T01:20:41.208Z,3.50
2018-05-26T01:25:45.343Z,4.13
2018-05-26T01:30:48.978Z,3.43
2018-05-26T01:35:52.353Z,3.37
2018-05-26T01:40:55.442Z,3.03
2018-05-26T01:45:58.563Z,3.13
2018-05-26T01:51:02.323Z,2.70
2018-05-26T01:56:05.239Z,3.33
2018-05-26T02:01:08.249Z,2.93
2018-05-26T02:06:11.342Z,3.10
2018-05-26T02:11:14.216Z,3.07
2018-05-26T02:16:17.241Z,2.70
2018-05-26T02:21:20.513Z,3.60
2018-05-26T02:26:24.483Z,2.77
2018-05-26T02:31:28.138Z,3.27
2018-05-26T02:36:32.005Z,2.60
2018-05-26T02:41:35.196Z,3.03
2018-05-26T02:46:38.278Z,3.30
2018-05-26T02:51:42.070Z,2.90
2018-05-26T02:56:45.170Z,3.17
2018-05-26T03:01:48.392Z,3.10
2018-05-26T03:06:56.822Z,3.30
2018-05-26T03:12:05.587Z,4.60
2018-05-26T03:17:09.002Z,4.63
2018-05-26T03:22:12.217Z,3.13
2018-05-26T03:27:15.936Z,5.27
2018-05-26T03:32:19.288Z,3.33
2018-05-26T03:37:22.190Z,4.90
2018-05-26T03:42:25.263Z,3.80
2018-05-26T03:47:28.578Z,3.17
2018-05-26T03:52:31.594Z,3.90
2018-05-26T03:58:49.377Z,4.43
2018-05-26T04:03:52.714Z,3.07
2018-05-26T04:08:56.000Z,3.90
2018-05-26T04:13:59.071Z,3.57
2018-05-26T04:19:02.189Z,3.77
2018-05-26T04:24:05.283Z,3.90
2018-05-26T04:29:08.176Z,8.47
2018-05-26T04:34:11.129Z,4.63
2018-05-26T04:39:14.341Z,4.97
2018-05-26T04:44:17.500Z,7.90
2018-05-26T04:49:20.605Z,6.80
2018-05-26T04:54:23.498Z,6.77
2018-05-26T04:59:26.389Z,5.57
2018-05-26T05:04:29.327Z,6.50
2018-05-26T05:09:32.905Z,5.30
2018-05-26T05:14:35.777Z,4.70
2018-05-26T05:19:38.870Z,7.30
2018-05-26T05:24:42.067Z,5.93
2018-05-26T05:29:44.970Z,5.50
2018-05-26T05:34:48.285Z,7.20
2018-05-26T05:39:51.762Z,5.83
2018-05-26T05:44:54.742Z,7.70
2018-05-26T05:49:57.607Z,9.47
2018-05-26T05:55:00.719Z,7.20
2018-05-26T06:00:03.672Z,7.13
2018-05-26T06:05:06.687Z,9.40
2018-05-26T06:10:09.864Z,8.87
2018-05-26T06:15:12.727Z,6.47
2018-05-26T06:20:15.597Z,8.63
2018-05-26T06:25:18.473Z,8.57
2018-05-26T06:30:21.344Z,6.90
2018-05-26T06:35:24.283Z,5.70
2018-05-26T06:40:27.556Z,6.47
2018-05-26T06:45:30.548Z,6.13
2018-05-26T06:50:33.631Z,6.97
2018-05-26T06:55:36.687Z,8.70
2018-05-26T07:00:40.089Z,7.67
2018-05-26T07:05:42.986Z,9.27
2018-05-26T07:10:46.927Z,7.10
2018-05-26T07:15:50.235Z,6.20
2018-05-26T07:20:53.101Z,6.20
2018-05-26T07:25:56.301Z,6.70
2018-05-26T07:30:59.176Z,7.33
2018-05-26T07:36:02.140Z,6.13
2018-05-26T07:41:05.058Z,5.50
2018-05-26T07:46:08.190Z,8.43
2018-05-26T07:51:11.054Z,8.80
2018-05-26T07:56:14.208Z,6.47
2018-05-26T08:01:17.324Z,6.50
2018-05-26T08:06:21.274Z,5.87
2018-05-26T08:11:24.222Z,5.70
2018-05-26T08:16:27.392Z,4.07
2018-05-26T08:21:30.328Z,4.93
2018-05-26T08:26:33.538Z,5.30
2018-05-26T08:31:36.461Z,6.07
2018-05-26T08:36:39.430Z,5.77
2018-05-26T08:41:42.331Z,6.00
2018-05-26T08:46:45.621Z,5.83
2018-05-26T08:51:48.525Z,4.60
2018-05-26T08:56:56.013Z,5.20
2018-05-26T09:02:03.942Z,4.77
2018-05-26T09:07:07.436Z,4.73
2018-05-26T09:12:10.341Z,5.87
2018-05-26T09:17:13.223Z,7.73
2018-05-26T09:22:16.073Z,6.47
2018-05-26T09:27:19.249Z,5.30
2018-05-26T09:32:22.131Z,6.70
2018-05-26T09:37:25.738Z,5.90
2018-05-26T09:42:28.674Z,7.13
2018-05-26T09:47:31.609Z,6.10
2018-05-26T09:52:34.481Z,4.67
2018-05-26T09:57:37.499Z,5.80
2018-05-26T10:02:40.357Z,6.07
2018-05-26T10:07:43.605Z,6.70
2018-05-26T10:12:46.516Z,6.33
2018-05-26T10:17:49.359Z,5.50
2018-05-26T10:22:52.202Z,6.63
2018-05-26T10:27:55.099Z,5.60
2018-05-26T10:32:57.956Z,5.23
2018-05-26T10:38:02.010Z,5.27
2018-05-26T10:43:06.082Z,5.40
2018-05-26T10:48:09.358Z,5.40
2018-05-26T10:53:12.197Z,4.67
2018-05-26T10:58:15.217Z,5.77
2018-05-26T11:03:18.049Z,5.60
2018-05-26T11:08:21.259Z,6.70
2018-05-26T11:13:24.249Z,5.07
2018-05-26T11:18:27.132Z,5.10
2018-05-26T11:23:30.062Z,5.30
2018-05-26T11:28:33.352Z,4.97
2018-05-26T11:33:36.207Z,4.40
2018-05-26T11:38:44.492Z,4.73
2018-05-26T11:43:48.089Z,4.80
2018-05-26T11:48:50.973Z,3.90
2018-05-26T11:53:53.858Z,4.80
2018-05-26T11:58:57.009Z,4.17
2018-05-26T12:03:59.924Z,4.00
2018-05-26T12:09:02.885Z,3.70
2018-05-26T12:14:06.080Z,2.47
2018-05-26T12:19:09.281Z,2.30
2018-05-26T12:24:12.489Z,2.43
2018-05-26T12:29:15.830Z,3.10
2018-05-26T12:34:18.721Z,2.70
2018-05-26T12:39:21.679Z,2.70
2018-05-26T12:44:25.118Z,2.57
2018-05-26T12:49:28.035Z,3.10
2018-05-26T12:54:30.937Z,2.10
2018-05-26T12:59:34.015Z,3.03
2018-05-26T13:04:37.146Z,3.10
2018-05-26T13:09:42.685Z,3.20
2018-05-26T13:14:46.032Z,2.50
2018-05-26T13:19:49.182Z,3.03
2018-05-26T13:24:52.118Z,3.50
2018-05-26T13:29:55.546Z,3.50
2018-05-26T13:34:58.445Z,3.93
2018-05-26T13:40:01.389Z,3.43
2018-05-26T13:45:04.317Z,4.50
2018-05-26T13:50:07.209Z,4.17
2018-05-26T13:55:10.367Z,4.57
2018-05-26T14:00:13.808Z,4.10
2018-05-26T14:05:16.757Z,3.60
2018-05-26T14:10:19.745Z,3.67
2018-05-26T14:15:22.658Z,3.90
2018-05-26T14:20:25.887Z,4.70
2018-05-26T14:25:28.812Z,3.80
2018-05-26T14:30:31.746Z,4.80
2018-05-26T14:35:34.633Z,4.40
2018-05-26T14:40:37.625Z,4.23
2018-05-26T14:45:40.488Z,3.67
2018-05-26T14:50:43.633Z,3.90
2018-05-26T14:55:46.597Z,4.37
2018-05-26T15:00:49.537Z,4.20
2018-05-26T15:05:52.504Z,3.50
2018-05-26T15:10:55.449Z,4.27
2018-05-26T15:15:58.367Z,4.53
2018-05-26T15:21:01.768Z,3.90
2018-05-26T15:26:04.722Z,2.97
2018-05-26T15:31:08.297Z,4.10
2018-05-26T15:36:11.205Z,3.97
2018-05-26T15:41:14.358Z,4.67
2018-05-26T15:46:18.262Z,4.07
2018-05-26T15:51:21.648Z,3.67
2018-05-26T15:56:24.560Z,5.53
2018-05-26T16:01:27.756Z,4.37
2018-05-26T16:06:30.696Z,4.30
2018-05-26T16:11:33.589Z,4.17
2018-05-26T16:16:36.511Z,3.87
2018-05-26T16:21:39.424Z,3.63
2018-05-26T16:26:42.574Z,4.37
2018-05-26T16:31:50.104Z,3.97
2018-05-26T16:36:53.405Z,4.33
2018-05-26T16:41:56.487Z,4.00
2018-05-26T16:46:59.662Z,3.27
2018-05-26T16:52:03.049Z,3.43
2018-05-26T16:57:06.486Z,3.47
2018-05-26T17:02:10.045Z,4.23
2018-05-26T17:07:13.100Z,4.00
2018-05-26T17:12:15.958Z,4.67
2018-05-26T17:17:18.860Z,3.87
2018-05-26T17:22:28.032Z,5.00
2018-05-26T17:28:06.488Z,4.13
2018-05-26T17:33:10.160Z,4.87
2018-05-26T17:38:13.081Z,4.23
2018-05-26T17:43:27.926Z,4.13
2018-05-26T17:48:33.128Z,4.10
2018-05-26T17:54:50.704Z,4.53
2018-05-26T17:59:53.724Z,4.33
2018-05-26T18:04:57.047Z,4.03
2018-05-26T18:10:00.047Z,4.10
2018-05-26T18:15:11.123Z,4.33
2018-05-26T18:20:14.461Z,4.30
2018-05-26T18:25:30.069Z,4.30
2018-05-26T18:30:34.548Z,4.07
2018-05-26T18:35:37.872Z,3.20
2018-05-26T18:40:42.153Z,4.10
2018-05-26T18:45:47.782Z,4.40
2018-05-26T18:50:51.204Z,4.00
2018-05-26T18:55:56.106Z,4.37
2018-05-26T19:01:04.588Z,3.77
2018-05-26T19:06:12.680Z,3.77
2018-05-26T19:11:16.162Z,4.47
2018-05-26T19:16:19.515Z,4.40
2018-05-26T19:21:23.481Z,3.90
2018-05-26T19:26:31.613Z,3.73
2018-05-26T19:31:35.040Z,4.27
2018-05-26T19:36:39.299Z,4.67
2018-05-26T19:41:43.169Z,4.70
2018-05-26T19:46:47.387Z,4.47
2018-05-26T19:51:51.954Z,4.07
2018-05-26T19:56:56.217Z,4.47
2018-05-26T20:02:01.894Z,4.93
2018-05-26T20:07:05.684Z,4.50
2018-05-26T20:12:09.045Z,4.20
2018-05-26T20:17:12.347Z,4.10
2018-05-26T20:22:16.239Z,4.57
2018-05-26T20:27:20.104Z,4.57
2018-05-26T20:32:23.554Z,4.00
2018-05-26T20:37:27.249Z,5.10
2018-05-26T20:42:30.315Z,4.23
2018-05-26T20:47:34.065Z,5.13
2018-05-26T20:52:37.287Z,5.00
2018-05-26T20:57:40.748Z,4.80
2018-05-26T21:02:44.207Z,6.50
2018-05-26T21:07:47.552Z,5.70
2018-05-26T21:12:50.550Z,9.73
2018-05-26T21:17:53.506Z,6.77
2018-05-26T21:22:56.744Z,8.40
2018-05-26T21:28:00.121Z,8.67
2018-05-26T21:33:07.151Z,10.27
2018-05-26T21:38:10.905Z,10.00
2018-05-26T21:43:13.901Z,10.43
2018-05-26T21:48:16.878Z,9.00
2018-05-26T21:53:20.004Z,10.53
2018-05-26T21:58:23.831Z,10.43
2018-05-26T22:03:26.782Z,8.87
2018-05-26T22:08:29.794Z,8.00
2018-05-26T22:13:32.712Z,7.70
2018-05-26T22:18:35.602Z,8.70
2018-05-26T22:23:38.557Z,10.07
2018-05-26T22:28:41.730Z,6.77
2018-05-26T22:33:46.202Z,6.17
2018-05-26T22:38:49.299Z,8.20
2018-05-26T22:43:52.194Z,11.13
2018-05-26T22:48:55.171Z,6.93
2018-05-26T22:53:58.069Z,6.50
2018-05-26T22:59:00.948Z,7.20
2018-05-26T23:04:04.322Z,10.70
2018-05-26T23:09:07.537Z,8.63
2018-05-26T23:14:10.500Z,10.07
2018-05-26T23:19:13.541Z,9.70
2018-05-26T23:24:16.508Z,8.07
2018-05-26T23:29:20.077Z,6.97
2018-05-26T23:34:23.253Z,7.10
2018-05-26T23:39:26.238Z,8.57
2018-05-26T23:44:29.146Z,5.50
2018-05-26T23:49:32.469Z,7.80
2018-05-26T23:54:35.393Z,13.70
2018-05-26T23:59:38.297Z,8.93
